Time;durP1;ratioP1;P1;durP2;ratioP2;P2;SDS_P1;SDS_P2;PMS_P1;PMS_P2;Temp;Humidity;BMP_temperature;BMP_pressure;BME280_temperature;BME280_humidity;BME280_pressure;Samples;Min_cycle;Max_cycle;Signal;HPM_P1;HPM_P2
2023/03/25 00:00:21;;;;;;;1999.90;999.90;;;9.50;99.90;;;;;;5051829;28;20416;-68
2023/03/25 00:02:49;;;;;;;1999.90;999.90;;;9.50;99.90;;;;;;5051766;28;20551;-68
2023/03/25 00:05:17;;;;;;;1999.90;999.90;;;9.60;99.90;;;;;;5051790;28;20178;-66
2023/03/25 00:07:44;;;;;;;1999.90;999.90;;;9.60;99.90;;;;;;5051528;28;20460;-66
2023/03/25 00:10:10;;;;;;;1999.90;999.90;;;9.70;99.90;;;;;;5051724;28;20506;-68
2023/03/25 00:12:36;;;;;;;1999.90;999.90;;;9.70;99.90;;;;;;5051484;28;20483;-69
2023/03/25 00:15:02;;;;;;;1999.90;999.90;;;9.80;99.90;;;;;;5051686;28;20498;-68
2023/03/25 00:17:30;;;;;;;1999.90;999.90;;;9.80;99.90;;;;;;5051478;28;20195;-68
2023/03/25 00:20:04;;;;;;;1999.90;999.90;;;9.80;99.90;;;;;;5051631;28;20265;-68
2023/03/25 00:22:30;;;;;;;1999.90;999.90;;;9.80;99.90;;;;;;5051370;28;20414;-69
2023/03/25 00:24:55;;;;;;;1999.90;999.90;;;9.70;99.90;;;;;;5051555;28;20417;-68
2023/03/25 00:27:21;;;;;;;1999.90;999.90;;;9.70;99.90;;;;;;5054637;28;20745;-68
2023/03/25 00:29:47;;;;;;;1999.90;999.90;;;9.70;99.90;;;;;;5055754;28;20666;-68
2023/03/25 00:32:14;;;;;;;1999.90;999.90;;;9.70;99.90;;;;;;5055525;28;20588;-68
2023/03/25 00:34:46;;;;;;;1999.90;999.90;;;9.70;99.90;;;;;;5055293;28;20199;-67
2023/03/25 00:37:20;;;;;;;1999.90;999.90;;;9.70;99.90;;;;;;5055263;28;20842;-69
2023/03/25 00:39:46;;;;;;;1999.90;999.90;;;9.70;99.90;;;;;;5055466;28;20875;-67
2023/03/25 00:42:15;;;;;;;1999.90;999.90;;;9.70;99.90;;;;;;5055548;28;20445;-68
2023/03/25 00:44:41;;;;;;;1999.90;999.90;;;9.70;99.90;;;;;;5055251;28;20178;-67
2023/03/25 00:47:07;;;;;;;1999.90;999.90;;;9.70;99.90;;;;;;5054962;28;20848;-67
2023/03/25 00:49:32;;;;;;;1999.90;999.90;;;9.70;99.90;;;;;;5055171;28;20171;-69
2023/03/25 00:51:58;;;;;;;1999.90;999.90;;;9.70;99.90;;;;;;5055169;28;20251;-69
2023/03/25 00:54:23;;;;;;;1999.90;999.90;;;9.60;99.90;;;;;;5054922;28;20536;-70
2023/03/25 00:56:51;;;;;;;1999.90;999.90;;;9.60;99.90;;;;;;5054909;28;20199;-68
2023/03/25 00:59:16;;;;;;;1999.90;999.90;;;9.60;99.90;;;;;;5055120;28;20661;-69
2023/03/25 01:01:44;;;;;;;1999.90;999.90;;;9.50;99.90;;;;;;5054964;28;20497;-69
2023/03/25 01:04:15;;;;;;;1999.90;999.90;;;9.50;99.90;;;;;;5054749;28;20179;-70
2023/03/25 01:06:42;;;;;;;1999.90;999.90;;;9.50;99.90;;;;;;5054622;28;20515;-69
2023/03/25 01:09:12;;;;;;;1999.90;999.90;;;9.40;99.90;;;;;;5054811;28;20530;-67
2023/03/25 01:11:38;;;;;;;1999.90;999.90;;;9.40;99.90;;;;;;5054780;28;20404;-66
2023/03/25 01:14:11;;;;;;;1999.90;999.90;;;9.40;99.90;;;;;;5054557;28;20410;-67
2023/03/25 01:16:37;;;;;;;1999.90;999.90;;;9.30;99.90;;;;;;5054585;28;20421;-67
2023/03/25 01:19:02;;;;;;;1999.90;999.90;;;9.40;99.90;;;;;;5054532;28;20496;-69
2023/03/25 01:21:28;;;;;;;1999.90;999.90;;;9.40;99.90;;;;;;5054608;28;20437;-67
2023/03/25 01:23:54;;;;;;;1999.90;999.90;;;9.50;99.90;;;;;;5054364;28;20663;-67
2023/03/25 01:26:19;;;;;;;1999.90;999.90;;;9.50;99.90;;;;;;5054364;28;20197;-67
2023/03/25 01:28:46;;;;;;;1999.90;999.90;;;9.60;99.90;;;;;;5054571;28;20208;-68
2023/03/25 01:31:13;;;;;;;1999.90;999.90;;;9.50;99.90;;;;;;5054405;28;20544;-68
2023/03/25 01:33:39;;;;;;;1999.90;999.90;;;9.60;99.90;;;;;;5054123;28;20432;-68
2023/03/25 01:36:11;;;;;;;1999.90;999.90;;;9.60;99.90;;;;;;5054085;28;20430;-68
2023/03/25 01:38:38;;;;;;;1999.90;999.90;;;9.60;99.90;;;;;;5053670;28;20413;-68
2023/03/25 01:41:05;;;;;;;1999.90;999.90;;;9.50;99.90;;;;;;5054130;28;20434;-68
2023/03/25 01:43:32;;;;;;;1999.90;999.90;;;9.50;99.90;;;;;;5054121;28;20445;-68
2023/03/25 01:45:58;;;;;;;1999.90;999.90;;;9.60;99.90;;;;;;5053999;28;20523;-68
2023/03/25 01:48:39;;;;;;;1999.90;999.90;;;9.50;99.90;;;;;;5054004;28;20457;-67
2023/03/25 01:51:19;;;;;;;1999.90;999.90;;;9.50;99.90;;;;;;5054073;28;20407;-68
2023/03/25 01:53:45;;;;;;;1999.90;999.90;;;9.30;99.90;;;;;;5053927;28;20928;-69
2023/03/25 01:56:14;;;;;;;1999.90;999.90;;;9.00;99.90;;;;;;5053786;28;20421;-70
2023/03/25 01:58:41;;;;;;;1999.90;999.90;;;8.90;99.90;;;;;;5053830;28;20922;-69
2023/03/25 02:01:12;;;;;;;1999.90;999.90;;;8.80;99.90;;;;;;5054025;28;20412;-68
2023/03/25 02:03:44;;;;;;;1999.90;999.90;;;8.70;99.90;;;;;;5053665;28;20413;-67
2023/03/25 02:06:21;;;;;;;1999.90;999.90;;;8.70;99.90;;;;;;5053590;28;20432;-68
2023/03/25 02:08:47;;;;;;;1999.90;999.90;;;8.70;99.90;;;;;;5053672;28;20457;-69
2023/03/25 02:11:13;;;;;;;1999.90;999.90;;;8.70;99.90;;;;;;5053646;28;20407;-69
2023/03/25 02:13:39;;;;;;;1999.90;999.90;;;8.80;99.90;;;;;;5053466;28;20971;-69
2023/03/25 02:16:44;;;;;;;1999.90;999.90;;;8.80;99.90;;;;;;5053509;28;20192;-69
2023/03/25 02:19:39;;;;;;;1999.90;999.90;;;8.70;99.90;;;;;;5053468;28;20464;-69
2023/03/25 02:22:40;;;;;;;1999.90;999.90;;;8.70;99.90;;;;;;5053454;28;20404;-69
2023/03/25 02:25:38;;;;;;;1999.90;999.90;;;8.70;99.90;;;;;;5053466;28;20538;-69
2023/03/25 02:28:28;;;;;;;1999.90;999.90;;;8.70;99.90;;;;;;5053128;28;20463;-69
2023/03/25 02:31:27;;;;;;;1999.90;999.90;;;8.70;99.90;;;;;;5053462;28;20401;-69
2023/03/25 02:34:14;;;;;;;1999.90;999.90;;;8.70;99.90;;;;;;5052973;28;20409;-69
2023/03/25 02:37:14;;;;;;;1999.90;999.90;;;8.70;99.90;;;;;;5052984;28;20416;-69
2023/03/25 02:39:47;;;;;;;1999.90;999.90;;;8.60;99.90;;;;;;5053106;28;20754;-69
2023/03/25 02:42:49;;;;;;;1999.90;999.90;;;8.70;99.90;;;;;;5053090;28;20411;-69
2023/03/25 02:45:30;;;;;;;1999.90;999.90;;;8.70;99.90;;;;;;5053000;28;20500;-69
2023/03/25 02:48:03;;;;;;;1999.90;999.90;;;8.70;99.90;;;;;;5052843;28;20464;-69
2023/03/25 02:50:33;;;;;;;1999.90;999.90;;;8.80;99.90;;;;;;5053095;28;20412;-69
2023/03/25 02:53:03;;;;;;;1999.90;999.90;;;8.80;99.90;;;;;;5052648;28;20402;-69
2023/03/25 02:55:30;;;;;;;1999.90;999.90;;;8.80;99.90;;;;;;5053063;28;20502;-68
2023/03/25 02:57:58;;;;;;;1999.90;999.90;;;8.90;99.90;;;;;;5052725;28;20934;-68
2023/03/25 03:00:27;;;;;;;1999.90;999.90;;;8.90;99.90;;;;;;5052719;28;20416;-68
2023/03/25 03:02:58;;;;;;;1999.90;999.90;;;8.90;99.90;;;;;;5052523;28;20405;-67
2023/03/25 03:05:36;;;;;;;1999.90;999.90;;;9.10;99.90;;;;;;5052639;28;20393;-68
2023/03/25 03:08:35;;;;;;;1999.90;999.90;;;9.10;99.90;;;;;;5052520;28;20459;-68
2023/03/25 03:11:16;;;;;;;1999.90;999.90;;;9.10;99.90;;;;;;5052725;28;20404;-67
2023/03/25 03:14:29;;;;;;;1999.90;999.90;;;9.00;99.90;;;;;;5052221;28;20405;-68
2023/03/25 03:17:18;;;;;;;1999.90;999.90;;;9.00;99.90;;;;;;4990733;28;20860;-67
2023/03/25 03:19:47;;;;;;;1999.90;999.90;;;9.00;99.90;;;;;;4990918;28;20470;-67
2023/03/25 03:22:15;;;;;;;1999.90;999.90;;;8.90;99.90;;;;;;5034198;28;20423;-67
2023/03/25 03:24:48;;;;;;;1999.90;999.90;;;8.90;99.90;;;;;;5052194;28;20408;-67
2023/03/25 03:27:32;;;;;;;1999.90;999.90;;;8.90;99.90;;;;;;5052044;28;20456;-67
2023/03/25 03:30:28;;;;;;;1999.90;999.90;;;8.90;99.90;;;;;;5052311;28;20485;-68
2023/03/25 03:33:14;;;;;;;1999.90;999.90;;;8.90;99.90;;;;;;5044424;28;20498;-68
2023/03/25 03:35:48;;;;;;;1999.90;999.90;;;8.70;99.90;;;;;;5052081;28;20483;-69
2023/03/25 03:38:16;;;;;;;1999.90;999.90;;;8.90;99.90;;;;;;5052081;28;20478;-68
2023/03/25 03:40:49;;;;;;;1999.90;999.90;;;8.90;99.90;;;;;;5051964;28;20451;-69
2023/03/25 03:43:22;;;;;;;1999.90;999.90;;;9.00;99.90;;;;;;5052084;28;20496;-69
2023/03/25 03:45:54;;;;;;;1999.90;999.90;;;9.00;99.90;;;;;;5051947;28;20501;-69
2023/03/25 03:48:25;;;;;;;1999.90;999.90;;;9.00;99.90;;;;;;5051858;28;20459;-69
2023/03/25 03:51:06;;;;;;;1999.90;999.90;;;9.00;99.90;;;;;;5052020;28;20769;-68
2023/03/25 03:53:39;;;;;;;1999.90;999.90;;;9.10;99.90;;;;;;5051704;28;20486;-67
2023/03/25 03:56:07;;;;;;;1999.90;999.90;;;9.20;99.90;;;;;;5051745;28;20459;-68
2023/03/25 03:58:41;;;;;;;1999.90;999.90;;;9.10;99.90;;;;;;5051797;28;20526;-69
2023/03/25 04:01:15;;;;;;;1999.90;999.90;;;9.20;99.90;;;;;;5051431;28;20409;-67
2023/03/25 04:04:10;;;;;;;1999.90;999.90;;;9.10;99.90;;;;;;5051634;28;20392;-68
2023/03/25 04:06:46;;;;;;;1999.90;999.90;;;9.10;99.90;;;;;;5037452;28;20459;-69
2023/03/25 04:09:40;;;;;;;1999.90;999.90;;;9.20;99.90;;;;;;5051847;28;20416;-68
2023/03/25 04:12:16;;;;;;;1999.90;999.90;;;9.20;99.90;;;;;;5044050;28;20418;-68
2023/03/25 04:14:42;;;;;;;1999.90;999.90;;;9.20;99.90;;;;;;5051553;28;20396;-68
2023/03/25 04:17:08;;;;;;;1999.90;999.90;;;9.20;99.90;;;;;;5051468;28;20955;-68
2023/03/25 04:19:33;;;;;;;1999.90;999.90;;;9.20;99.90;;;;;;5051707;28;20405;-67
2023/03/25 04:22:00;;;;;;;1999.90;999.90;;;9.20;99.90;;;;;;5051690;28;20593;-69
2023/03/25 04:24:30;;;;;;;1999.90;999.90;;;9.30;99.90;;;;;;5051431;28;20168;-67
2023/03/25 04:27:02;;;;;;;1999.90;999.90;;;9.20;99.90;;;;;;5051519;28;20452;-68
2023/03/25 04:29:28;;;;;;;1999.90;999.90;;;9.20;99.90;;;;;;5051731;28;20396;-69
2023/03/25 04:31:55;;;;;;;1999.90;999.90;;;9.20;99.90;;;;;;5051525;28;20417;-68
2023/03/25 04:34:21;;;;;;;1999.90;999.90;;;9.30;99.90;;;;;;5051466;28;20397;-69
2023/03/25 04:36:48;;;;;;;1999.90;999.90;;;9.20;99.90;;;;;;5051392;28;20417;-68
2023/03/25 04:39:16;;;;;;;1999.90;999.90;;;9.20;99.90;;;;;;5051402;28;20772;-68
2023/03/25 04:41:45;;;;;;;1999.90;999.90;;;9.30;99.90;;;;;;5051412;28;20481;-68
2023/03/25 04:44:11;;;;;;;1999.90;999.90;;;9.30;99.90;;;;;;5051326;28;20408;-68
2023/03/25 04:46:37;;;;;;;1999.90;999.90;;;9.30;99.90;;;;;;5051158;28;20426;-68
2023/03/25 04:49:12;;;;;;;1999.90;999.90;;;9.30;99.90;;;;;;5051536;28;20465;-69
2023/03/25 04:51:40;;;;;;;1999.90;999.90;;;9.30;99.90;;;;;;5051305;28;20418;-69
2023/03/25 04:54:06;;;;;;;1999.90;999.90;;;9.30;99.90;;;;;;5051783;28;20895;-69
2023/03/25 04:56:32;;;;;;;1999.90;999.90;;;9.30;99.90;;;;;;5051112;28;20443;-69
2023/03/25 04:58:58;;;;;;;1999.90;999.90;;;9.30;99.90;;;;;;5051357;28;20485;-68
2023/03/25 05:01:30;;;;;;;1999.90;999.90;;;9.30;99.90;;;;;;5051288;28;20245;-69
2023/03/25 05:04:03;;;;;;;1999.90;999.90;;;9.30;99.90;;;;;;5051061;28;20259;-69
2023/03/25 05:06:33;;;;;;;1999.90;999.90;;;9.30;99.90;;;;;;5051282;28;20444;-70
2023/03/25 05:09:03;;;;;;;1999.90;999.90;;;9.30;99.90;;;;;;5051182;28;20794;-69
2023/03/25 05:11:30;;;;;;;1999.90;999.90;;;9.30;99.90;;;;;;5051340;28;20771;-68
2023/03/25 05:13:56;;;;;;;1999.90;999.90;;;9.30;99.90;;;;;;5053275;28;20401;-68
2023/03/25 05:16:22;;;;;;;1999.90;999.90;;;9.30;99.90;;;;;;5054581;28;20845;-68
2023/03/25 05:18:48;;;;;;;1999.90;999.90;;;9.30;99.90;;;;;;5054656;28;20175;-68
2023/03/25 05:21:14;;;;;;;1999.90;999.90;;;9.40;99.90;;;;;;5054681;28;20173;-68
2023/03/25 05:23:40;;;;;;;1999.90;999.90;;;9.30;99.90;;;;;;5054550;28;20447;-69
2023/03/25 05:26:07;;;;;;;1999.90;999.90;;;9.30;99.90;;;;;;5054417;28;20491;-69
2023/03/25 05:28:34;;;;;;;1999.90;999.90;;;9.30;99.90;;;;;;5054421;28;20503;-67
2023/03/25 05:31:00;;;;;;;1999.90;999.90;;;9.20;99.90;;;;;;5054394;28;20405;-70
2023/03/25 05:33:26;;;;;;;1999.90;999.90;;;9.20;99.90;;;;;;5054163;28;20458;-69
2023/03/25 05:35:51;;;;;;;1999.90;999.90;;;9.20;99.90;;;;;;5054412;28;20201;-68
2023/03/25 05:38:17;;;;;;;1999.90;999.90;;;9.30;99.90;;;;;;5054336;28;20520;-69
2023/03/25 05:40:47;;;;;;;1999.90;999.90;;;9.30;99.90;;;;;;5054220;28;20209;-67
2023/03/25 05:43:14;;;;;;;1999.90;999.90;;;9.30;99.90;;;;;;5054139;28;20406;-69
2023/03/25 05:45:44;;;;;;;1999.90;999.90;;;9.30;99.90;;;;;;5053984;28;20522;-69
2023/03/25 05:48:09;;;;;;;1999.90;999.90;;;9.30;99.90;;;;;;5053966;28;20456;-69
2023/03/25 05:50:36;;;;;;;1999.90;999.90;;;9.40;99.90;;;;;;5054074;28;20505;-69
2023/03/25 05:53:03;;;;;;;1999.90;999.90;;;9.40;99.90;;;;;;5053823;28;20184;-69
2023/03/25 05:55:28;;;;;;;1999.90;999.90;;;9.70;99.90;;;;;;5053889;28;20406;-68
2023/03/25 05:57:55;;;;;;;1999.90;999.90;;;9.40;99.90;;;;;;5053887;28;20405;-68
2023/03/25 06:00:21;;;;;;;1999.90;999.90;;;9.30;99.90;;;;;;5053881;28;20260;-69
2023/03/25 06:02:47;;;;;;;1999.90;999.90;;;9.20;99.90;;;;;;5053893;28;20462;-70
2023/03/25 06:05:15;;;;;;;1999.90;999.90;;;9.10;99.90;;;;;;5053841;28;20177;-70
2023/03/25 06:07:46;;;;;;;1999.90;999.90;;;9.00;99.90;;;;;;5053529;28;20453;-70
2023/03/25 06:10:15;;;;;;;1999.90;999.90;;;9.00;99.90;;;;;;5053852;28;20892;-70
2023/03/25 06:12:42;;;;;;;1999.90;999.90;;;9.00;99.90;;;;;;5053419;28;20907;-70
2023/03/25 06:15:09;;;;;;;1999.90;999.90;;;9.00;99.90;;;;;;5053464;28;20416;-70
2023/03/25 06:17:38;;;;;;;1999.90;999.90;;;9.10;99.90;;;;;;5053551;28;20444;-70
2023/03/25 06:20:12;;;;;;;1999.90;999.90;;;9.10;99.90;;;;;;5053512;28;20421;-68
2023/03/25 06:22:43;;;;;;;1999.90;999.90;;;9.20;99.90;;;;;;5053351;28;20415;-69
2023/03/25 06:25:11;;;;;;;1999.90;999.90;;;9.20;99.90;;;;;;5053101;28;20422;-69
2023/03/25 06:27:39;;;;;;;1999.90;999.90;;;9.20;99.90;;;;;;5053012;28;20462;-69
2023/03/25 06:30:17;;;;;;;1999.90;999.90;;;9.30;99.90;;;;;;5053255;28;20930;-69
2023/03/25 06:32:43;;;;;;;1999.90;999.90;;;9.30;99.90;;;;;;5053106;28;20404;-69
2023/03/25 06:35:10;;;;;;;1999.90;999.90;;;9.30;99.90;;;;;;5053297;28;20912;-68
2023/03/25 06:37:36;;;;;;;1999.90;999.90;;;9.30;99.90;;;;;;5053028;28;20242;-68
2023/03/25 06:40:04;;;;;;;1999.90;999.90;;;9.30;99.90;;;;;;5053003;28;20463;-68
2023/03/25 06:42:29;;;;;;;1999.90;999.90;;;9.40;99.90;;;;;;5052880;28;20406;-69
2023/03/25 06:44:55;;;;;;;1999.90;999.90;;;9.30;99.90;;;;;;5053216;28;20405;-69
2023/03/25 06:47:21;;;;;;;1999.90;999.90;;;9.10;99.90;;;;;;5052803;28;20289;-69
2023/03/25 06:49:47;;;;;;;1999.90;999.90;;;8.80;99.90;;;;;;5053036;28;20180;-69
2023/03/25 06:52:13;;;;;;;1999.90;999.90;;;8.60;99.90;;;;;;5053010;28;20745;-68
2023/03/25 06:54:39;;;;;;;1999.90;999.90;;;8.50;99.90;;;;;;5052635;28;20417;-68
2023/03/25 06:57:04;;;;;;;1999.90;999.90;;;8.40;99.90;;;;;;5052671;28;20228;-68
2023/03/25 06:59:30;;;;;;;1999.90;999.90;;;8.40;99.90;;;;;;5052800;28;20180;-68
2023/03/25 07:01:57;;;;;;;1999.90;999.90;;;8.40;99.90;;;;;;5052923;28;20175;-68
2023/03/25 07:04:22;;;;;;;1999.90;999.90;;;8.40;99.90;;;;;;5052501;28;20409;-68
2023/03/25 07:06:48;;;;;;;1999.90;999.90;;;8.40;99.90;;;;;;5052387;28;20457;-68
2023/03/25 07:09:14;;;;;;;1999.90;999.90;;;8.50;99.90;;;;;;5052577;28;20165;-68
2023/03/25 07:11:40;;;;;;;1999.90;999.90;;;8.60;99.90;;;;;;5052510;28;20171;-69
2023/03/25 07:14:05;;;;;;;1999.90;999.90;;;8.70;99.90;;;;;;5052290;28;20412;-69
2023/03/25 07:16:31;;;;;;;1999.90;999.90;;;8.80;99.90;;;;;;5052368;28;20667;-68
2023/03/25 07:18:57;;;;;;;1999.90;999.90;;;8.90;99.90;;;;;;5052450;28;20171;-66
2023/03/25 07:21:24;;;;;;;1999.90;999.90;;;9.00;99.90;;;;;;5052428;28;20177;-67
2023/03/25 07:23:49;;;;;;;1999.90;999.90;;;9.00;99.90;;;;;;5052170;28;20403;-67
2023/03/25 07:26:15;;;;;;;1999.90;999.90;;;9.10;99.90;;;;;;5052136;28;20754;-69
2023/03/25 07:28:41;;;;;;;1999.90;999.90;;;9.10;99.90;;;;;;5053148;28;20484;-68
2023/03/25 07:31:15;;;;;;;1999.90;999.90;;;9.20;99.90;;;;;;5072274;28;20169;-69
2023/03/25 07:33:41;;;;;;;1999.90;999.90;;;9.30;99.90;;;;;;5072009;28;20442;-69
2023/03/25 07:36:09;;;;;;;1999.90;999.90;;;9.30;99.90;;;;;;5071306;28;20458;-68
2023/03/25 07:38:35;;;;;;;1999.90;999.90;;;9.40;99.90;;;;;;5072135;28;20194;-69
2023/03/25 07:41:09;;;;;;;1999.90;999.90;;;9.40;99.90;;;;;;5072021;28;20453;-67
2023/03/25 07:43:35;;;;;;;1999.90;999.90;;;9.50;99.90;;;;;;5072032;28;20771;-67
2023/03/25 07:46:01;;;;;;;1999.90;999.90;;;9.40;99.90;;;;;;5071888;28;20436;-67
2023/03/25 07:48:26;;;;;;;1999.90;999.90;;;9.50;99.90;;;;;;5071925;28;20284;-68
2023/03/25 07:50:52;;;;;;;1999.90;999.90;;;9.40;99.90;;;;;;5071931;28;20166;-69
2023/03/25 07:53:18;;;;;;;1999.90;999.90;;;9.40;99.90;;;;;;5071856;28;20922;-67
2023/03/25 07:55:49;;;;;;;1999.90;999.90;;;9.40;99.90;;;;;;5072002;28;20306;-67
2023/03/25 07:58:16;;;;;;;1999.90;999.90;;;9.40;99.90;;;;;;5071949;28;20651;-67
2023/03/25 08:00:42;;;;;;;1999.90;999.90;;;9.30;99.90;;;;;;5071958;28;20444;-67
2023/03/25 08:03:10;;;;;;;1999.90;999.90;;;9.30;99.90;;;;;;5071717;28;20451;-67
2023/03/25 08:05:36;;;;;;;1999.90;999.90;;;9.00;99.90;;;;;;5071762;28;20247;-67
2023/03/25 08:08:04;;;;;;;1999.90;999.90;;;9.20;99.90;;;;;;5071865;28;20445;-67
2023/03/25 08:10:30;;;;;;;1999.90;999.90;;;9.20;99.90;;;;;;5071848;28;20407;-67
2023/03/25 08:12:56;;;;;;;1999.90;999.90;;;9.20;99.90;;;;;;5071703;28;20405;-67
2023/03/25 08:15:25;;;;;;;1999.90;999.90;;;9.30;99.90;;;;;;5071863;28;20169;-69
2023/03/25 08:17:51;;;;;;;1999.90;999.90;;;9.30;99.90;;;;;;5071622;28;20266;-68
2023/03/25 08:20:17;;;;;;;1999.90;999.90;;;9.40;99.90;;;;;;5071746;28;20827;-67
2023/03/25 08:22:46;;;;;;;1999.90;999.90;;;9.50;99.90;;;;;;5071577;28;20698;-68
2023/03/25 08:25:12;;;;;;;1999.90;999.90;;;9.70;99.90;;;;;;5071720;28;20189;-67
2023/03/25 08:27:37;;;;;;;1999.90;999.90;;;9.80;99.90;;;;;;5071423;28;20456;-68
2023/03/25 08:30:03;;;;;;;1999.90;999.90;;;9.90;99.90;;;;;;5071614;28;20174;-67
2023/03/25 08:32:29;;;;;;;1999.90;999.90;;;10.10;99.90;;;;;;5071383;28;20650;-69
2023/03/25 08:34:55;;;;;;;1999.90;999.90;;;10.20;99.90;;;;;;5071541;28;20397;-69
2023/03/25 08:37:22;;;;;;;1999.90;999.90;;;10.20;99.90;;;;;;5071421;28;20436;-67
2023/03/25 08:39:49;;;;;;;1999.90;999.90;;;10.30;99.90;;;;;;5071481;28;20164;-67
2023/03/25 08:42:15;;;;;;;1999.90;999.90;;;10.30;99.90;;;;;;5071581;28;20774;-67
2023/03/25 08:44:41;;;;;;;1999.90;999.90;;;10.40;99.90;;;;;;5071324;28;20487;-68
2023/03/25 08:47:07;;;;;;;1999.90;999.90;;;10.40;99.90;;;;;;5072412;28;20900;-68
2023/03/25 08:49:33;;;;;;;1999.90;999.90;;;10.50;99.90;;;;;;5075460;28;20173;-68
2023/03/25 08:52:00;;;;;;;1999.90;999.90;;;10.50;99.90;;;;;;5075080;28;20546;-68
2023/03/25 08:54:26;;;;;;;1999.90;999.90;;;10.50;99.90;;;;;;5074971;28;20189;-68
2023/03/25 08:56:52;;;;;;;1999.90;999.90;;;10.60;99.90;;;;;;5074821;28;20515;-68
2023/03/25 08:59:19;;;;;;;1999.90;999.90;;;10.50;99.90;;;;;;5074971;28;20914;-68
2023/03/25 09:01:44;;;;;;;1999.90;999.90;;;10.60;99.90;;;;;;5074912;28;20774;-68
2023/03/25 09:04:10;;;;;;;1999.90;999.90;;;10.70;99.90;;;;;;5074792;28;20405;-68
2023/03/25 09:06:38;;;;;;;1999.90;999.90;;;10.90;99.90;;;;;;5074832;28;20194;-68
2023/03/25 09:09:04;;;;;;;1999.90;999.90;;;10.90;99.90;;;;;;5074929;28;20535;-69
2023/03/25 09:11:31;;;;;;;1999.90;999.90;;;10.90;99.90;;;;;;5074801;28;20411;-69
2023/03/25 09:13:56;;;;;;;1999.90;999.90;;;11.00;99.90;;;;;;5074546;28;20412;-69
2023/03/25 09:16:22;;;;;;;1999.90;999.90;;;11.00;99.90;;;;;;5074556;28;20429;-68
2023/03/25 09:18:48;;;;;;;1999.90;999.90;;;11.10;99.90;;;;;;5074717;28;20669;-68
2023/03/25 09:21:13;;;;;;;1999.90;999.90;;;11.20;99.90;;;;;;5074642;28;20195;-68
2023/03/25 09:23:39;;;;;;;1999.90;999.90;;;11.30;99.90;;;;;;5074551;28;20211;-68
2023/03/25 09:26:05;;;;;;;1999.90;999.90;;;11.20;99.90;;;;;;5074395;28;20191;-67
2023/03/25 09:28:31;;;;;;;1999.90;999.90;;;11.20;99.90;;;;;;5074520;28;20547;-68
2023/03/25 09:30:57;;;;;;;1999.90;999.90;;;11.30;99.90;;;;;;5074467;28;20408;-68
2023/03/25 09:33:22;;;;;;;1999.90;999.90;;;11.30;99.90;;;;;;5074440;28;20834;-68
2023/03/25 09:35:49;;;;;;;1999.90;999.90;;;11.40;99.90;;;;;;5074337;28;20421;-68
2023/03/25 09:38:14;;;;;;;1999.90;999.90;;;11.40;99.90;;;;;;5074270;28;20178;-68
2023/03/25 09:40:42;;;;;;;1999.90;999.90;;;11.30;99.90;;;;;;5074216;28;20432;-68
2023/03/25 09:43:29;;;;;;;1999.90;999.90;;;11.30;99.90;;;;;;5074068;28;20179;-68
2023/03/25 09:45:57;;;;;;;1999.90;999.90;;;11.40;99.90;;;;;;5074214;28;20575;-68
2023/03/25 09:48:44;;;;;;;1999.90;999.90;;;11.50;99.90;;;;;;5074098;28;20456;-68
2023/03/25 09:51:25;;;;;;;1999.90;999.90;;;11.60;99.90;;;;;;5074160;28;20451;-68
2023/03/25 09:54:01;;;;;;;1999.90;999.90;;;11.70;99.90;;;;;;5073793;28;20444;-68
2023/03/25 09:56:30;;;;;;;1999.90;999.90;;;11.80;99.90;;;;;;5073876;28;20418;-68
2023/03/25 09:59:18;;;;;;;1999.90;999.90;;;11.80;99.90;;;;;;5073209;28;20446;-68
2023/03/25 10:02:05;;;;;;;1999.90;999.90;;;11.80;99.90;;;;;;5074010;28;20807;-68
2023/03/25 10:05:00;;;;;;;1999.90;999.90;;;11.60;99.90;;;;;;5073735;28;20763;-68
2023/03/25 10:07:40;;;;;;;1999.90;999.90;;;11.50;99.90;;;;;;5072361;28;20457;-70
2023/03/25 10:10:19;;;;;;;1999.90;999.90;;;11.50;99.90;;;;;;5069152;28;20404;-67
2023/03/25 10:12:53;;;;;;;1999.90;999.90;;;11.30;99.90;;;;;;5068881;28;20405;-67
2023/03/25 10:15:47;;;;;;;1999.90;999.90;;;11.10;99.90;;;;;;5068923;28;20408;-67
2023/03/25 10:18:26;;;;;;;1999.90;999.90;;;11.10;99.90;;;;;;5069732;28;20397;-67
2023/03/25 10:21:00;;;;;;;1999.90;999.90;;;11.30;99.90;;;;;;5069624;28;20428;-68
2023/03/25 10:24:24;;;;;;;1999.90;999.90;;;11.40;99.90;;;;;;5069455;28;20448;-68
2023/03/25 10:27:00;;;;;;;1999.90;999.90;;;11.70;99.90;;;;;;5045989;28;20441;-69
2023/03/25 10:29:50;;;;;;;1999.90;999.90;;;11.80;99.90;;;;;;5065519;28;20914;-69
2023/03/25 10:32:28;;;;;;;1999.90;999.90;;;12.00;99.90;;;;;;5068879;28;20506;-69
2023/03/25 10:34:54;;;;;;;1999.90;999.90;;;12.10;99.90;;;;;;5068989;28;20412;-68
2023/03/25 10:37:34;;;;;;;1999.90;999.90;;;12.40;99.90;;;;;;5068222;28;20462;-68
2023/03/25 10:40:16;;;;;;;1999.90;999.90;;;12.60;99.90;;;;;;5068376;28;20468;-69
2023/03/25 10:42:58;;;;;;;1999.90;999.90;;;12.40;99.90;;;;;;5068266;28;20417;-70
2023/03/25 10:45:27;;;;;;;1999.90;999.90;;;12.20;99.90;;;;;;5069064;28;20412;-71
2023/03/25 10:47:59;;;;;;;1999.90;999.90;;;12.00;99.90;;;;;;5068154;28;20461;-70
2023/03/25 10:50:25;;;;;;;1999.90;999.90;;;11.70;99.90;;;;;;5067574;28;20417;-68
2023/03/25 10:52:51;;;;;;;1999.90;999.90;;;11.60;99.90;;;;;;5067623;28;20419;-65
2023/03/25 10:55:24;;;;;;;1999.90;999.90;;;11.50;99.90;;;;;;5066769;28;20421;-68
2023/03/25 10:57:51;;;;;;;1999.90;999.90;;;11.60;99.90;;;;;;5067270;28;20413;-69
2023/03/25 11:00:19;;;;;;;1999.90;999.90;;;11.70;99.90;;;;;;5068468;28;20479;-68
2023/03/25 11:02:46;;;;;;;1999.90;999.90;;;11.80;99.90;;;;;;5068022;28;20417;-67
2023/03/25 11:05:17;;;;;;;1999.90;999.90;;;11.90;99.90;;;;;;5067658;28;20926;-68
2023/03/25 11:07:56;;;;;;;1999.90;999.90;;;11.80;99.90;;;;;;5067668;28;20459;-68
2023/03/25 11:10:33;;;;;;;1999.90;999.90;;;12.00;99.90;;;;;;5067071;28;20418;-68
2023/03/25 11:13:03;;;;;;;1999.90;999.90;;;12.10;99.90;;;;;;5067595;28;20421;-68
2023/03/25 11:15:36;;;;;;;1999.90;999.90;;;11.90;99.90;;;;;;5067799;28;20422;-67
2023/03/25 11:18:10;;;;;;;1999.90;999.90;;;12.10;99.90;;;;;;5068123;28;20909;-68
2023/03/25 11:20:52;;;;;;;1999.90;999.90;;;12.30;99.90;;;;;;5068485;28;20898;-67
2023/03/25 11:23:29;;;;;;;1999.90;999.90;;;12.30;99.90;;;;;;5067541;28;20441;-68
2023/03/25 11:26:05;;;;;;;1999.90;999.90;;;12.50;99.90;;;;;;5067630;28;20452;-70
2023/03/25 11:28:54;;;;;;;1999.90;999.90;;;12.60;99.90;;;;;;5067910;28;20971;-69
2023/03/25 11:31:26;;;;;;;1999.90;999.90;;;12.70;99.90;;;;;;5067633;28;20418;-68
2023/03/25 11:34:10;;;;;;;1999.90;999.90;;;12.90;99.90;;;;;;5067460;28;20410;-69
2023/03/25 11:36:38;;;;;;;1999.90;999.90;;;13.20;99.90;;;;;;5067381;28;20517;-69
2023/03/25 11:39:18;;;;;;;1999.90;999.90;;;13.40;99.90;;;;;;5067339;28;20434;-69
2023/03/25 11:41:45;;;;;;;1999.90;999.90;;;13.50;99.90;;;;;;5067578;28;20468;-67
2023/03/25 11:44:27;;;;;;;1999.90;999.90;;;13.80;99.90;;;;;;5067624;28;20972;-69
2023/03/25 11:47:03;;;;;;;1999.90;999.90;;;13.60;99.90;;;;;;5067137;28;20432;-68
2023/03/25 11:49:34;;;;;;;1999.90;999.90;;;13.50;99.90;;;;;;5067750;28;20777;-68
2023/03/25 11:52:11;;;;;;;1999.90;999.90;;;13.30;99.90;;;;;;5068484;28;20423;-67
2023/03/25 11:54:38;;;;;;;1999.90;999.90;;;13.30;99.90;;;;;;5068042;28;20525;-67
2023/03/25 11:57:10;;;;;;;1999.90;999.90;;;13.30;99.90;;;;;;5068025;28;20980;-70
2023/03/25 11:59:44;;;;;;;1999.90;999.90;;;13.40;99.90;;;;;;5067671;28;20423;-69
2023/03/25 12:02:27;;;;;;;1999.90;999.90;;;13.50;99.90;;;;;;5067560;28;20423;-69
2023/03/25 12:05:00;;;;;;;1999.90;999.90;;;14.20;99.90;;;;;;5067628;28;20531;-69
2023/03/25 12:07:27;;;;;;;1999.90;999.90;;;14.60;99.90;;;;;;5067245;28;20464;-69
2023/03/25 12:09:57;;;;;;;1999.90;999.90;;;14.80;99.90;;;;;;5067452;28;20424;-64
2023/03/25 12:12:32;;;;;;;1999.90;999.90;;;15.10;99.90;;;;;;5068235;28;20423;-66
2023/03/25 12:15:01;;;;;;;1999.90;999.90;;;15.60;99.90;;;;;;5068327;28;20409;-67
2023/03/25 12:17:41;;;;;;;1999.90;999.90;;;16.10;99.90;;;;;;5067228;28;20483;-66
2023/03/25 12:20:21;;;;;;;1999.90;999.90;;;15.70;99.90;;;;;;5067925;28;20483;-67
2023/03/25 12:23:01;;;;;;;1999.90;999.90;;;15.60;99.90;;;;;;5070543;28;20407;-66
2023/03/25 12:26:14;;;;;;;1999.90;999.90;;;15.50;99.90;;;;;;5072163;28;20460;-66